Little Rock, Mississippi
Current Conditions -  °F | °C
As of 5:58 PM on Wednesday 28 Jan 2015 (Local Time) from KMEI Reporting Station
Clear Clear  
Wind Chill: 54°   Ceiling: Unl
Heat Index: 54°   Visibility: 10mi
Dew Point: 31°   Wind: 3mph
Humidity: 41%   Direction: 170°S
Pressure: 30.22"   Gusts: NA
Location:  32.53°N, 89.03°W
Report Text: KMEI 282358Z 17003KT 10SM CLR 12/M01 A3022 RMK AO2 SLP233 T01221006 10189 20117 53001
Loading
Personal Weather Stations






























Interactive Weather Map New forecast layout! Learn more

10-Day Weather Forecast

Advertisements
Track Severe Weather on mobile